createdAt,value
2018-12-27T00:00:34.722Z,30.80
2018-12-27T00:01:34.714Z,30.40
2018-12-27T00:02:34.701Z,30.20
2018-12-27T00:03:34.691Z,30.20
2018-12-27T00:04:34.701Z,30.40
2018-12-27T00:05:34.667Z,30.20
2018-12-27T00:06:34.661Z,28.90
2018-12-27T00:07:34.649Z,29.60
2018-12-27T00:08:34.636Z,30.70
2018-12-27T00:09:34.633Z,28.80
2018-12-27T00:10:34.614Z,29.30
2018-12-27T00:11:34.605Z,28.80
2018-12-27T00:12:34.593Z,29.30
2018-12-27T00:13:34.582Z,29.00
2018-12-27T00:14:34.605Z,29.00
2018-12-27T00:15:34.561Z,29.10
2018-12-27T00:16:34.550Z,29.30
2018-12-27T00:17:34.539Z,29.70
2018-12-27T00:18:34.527Z,30.60
2018-12-27T00:19:34.521Z,29.50
2018-12-27T00:20:34.516Z,29.20
2018-12-27T00:21:34.508Z,29.20
2018-12-27T00:22:34.484Z,29.80
2018-12-27T00:23:34.475Z,29.70
2018-12-27T00:24:34.463Z,31.40
2018-12-27T00:25:34.465Z,28.10
2018-12-27T00:26:34.442Z,29.50
2018-12-27T00:27:34.430Z,28.40
2018-12-27T00:28:34.420Z,29.00
2018-12-27T00:29:34.409Z,28.40
2018-12-27T00:30:34.408Z,29.10
2018-12-27T00:31:34.388Z,28.80
2018-12-27T00:32:34.376Z,28.50
2018-12-27T00:33:34.377Z,28.60
2018-12-27T00:34:34.355Z,28.00
2018-12-27T00:35:34.363Z,27.50
2018-12-27T00:36:34.334Z,27.20
2018-12-27T00:37:34.322Z,29.30
2018-12-27T00:38:34.312Z,27.80
2018-12-27T00:39:34.301Z,27.50
2018-12-27T00:40:34.300Z,27.90
2018-12-27T00:41:34.281Z,27.00
2018-12-27T00:42:34.268Z,28.50
2018-12-27T00:43:34.258Z,27.60
2018-12-27T00:44:34.249Z,28.70
2018-12-27T00:45:34.246Z,28.60
2018-12-27T00:46:34.226Z,27.70
2018-12-27T00:47:34.216Z,28.50
2018-12-27T00:48:34.204Z,29.00
2018-12-27T00:49:34.193Z,28.10
2018-12-27T00:50:34.190Z,27.90
2018-12-27T00:51:34.171Z,28.30
2018-12-27T00:52:34.164Z,28.90
2018-12-27T00:53:34.150Z,29.50
2018-12-27T00:54:34.142Z,29.20
2018-12-27T00:55:34.136Z,28.90
2018-12-27T00:56:34.117Z,28.80
2018-12-27T00:57:34.107Z,29.50
2018-12-27T00:58:34.098Z,30.20
2018-12-27T00:59:34.088Z,29.60
2018-12-27T01:00:34.109Z,30.10
2018-12-27T01:01:34.063Z,28.60
2018-12-27T01:02:34.053Z,29.00
2018-12-27T01:03:34.041Z,29.10
2018-12-27T01:04:34.038Z,29.30
2018-12-27T01:05:34.019Z,28.90
2018-12-27T01:06:34.020Z,27.90
2018-12-27T01:07:33.998Z,27.60
2018-12-27T01:08:33.987Z,28.70
2018-12-27T01:09:33.977Z,29.30
2018-12-27T01:10:33.965Z,29.40
2018-12-27T01:11:33.968Z,28.60
2018-12-27T01:12:33.947Z,27.70
2018-12-27T01:13:33.941Z,28.30
2018-12-27T01:14:34.000Z,28.10
2018-12-27T01:15:33.913Z,28.10
2018-12-27T01:16:33.912Z,27.60
2018-12-27T01:17:33.890Z,27.70
2018-12-27T01:18:33.880Z,28.10
2018-12-27T01:19:33.872Z,28.80
2018-12-27T01:20:33.858Z,27.90
2018-12-27T01:21:33.856Z,27.30
2018-12-27T01:22:33.836Z,28.50
2018-12-27T01:23:33.828Z,28.30
2018-12-27T01:24:33.815Z,27.40
2018-12-27T01:25:33.803Z,28.20
2018-12-27T01:26:33.802Z,28.40
2018-12-27T01:27:33.782Z,27.40
2018-12-27T01:28:33.775Z,27.30
2018-12-27T01:29:33.761Z,28.00
2018-12-27T01:30:33.750Z,28.90
2018-12-27T01:31:33.748Z,28.80
2018-12-27T01:32:33.728Z,28.20
2018-12-27T01:33:33.722Z,27.30
2018-12-27T01:34:33.707Z,28.90
2018-12-27T01:35:33.696Z,27.40
2018-12-27T01:36:33.722Z,29.40
2018-12-27T01:37:33.674Z,29.30
2018-12-27T01:38:33.663Z,28.90
2018-12-27T01:39:33.652Z,28.80
2018-12-27T01:40:33.642Z,30.00
2018-12-27T01:41:33.631Z,27.70
2018-12-27T01:42:33.628Z,27.40
2018-12-27T01:43:33.610Z,28.00
2018-12-27T01:44:33.600Z,27.90
2018-12-27T01:45:33.588Z,27.90
2018-12-27T01:46:33.577Z,26.70
2018-12-27T01:47:33.575Z,28.40
2018-12-27T01:48:33.561Z,28.90
2018-12-27T01:49:33.545Z,28.40
2018-12-27T01:50:33.539Z,29.00
2018-12-27T01:51:33.523Z,28.10
2018-12-27T01:52:33.521Z,28.70
2018-12-27T01:53:33.503Z,27.80
2018-12-27T01:54:33.491Z,27.20
2018-12-27T01:55:33.480Z,27.80
2018-12-27T01:56:33.469Z,26.30
2018-12-27T01:57:33.467Z,28.10
2018-12-27T01:58:33.456Z,27.40
2018-12-27T01:59:33.438Z,27.90
2018-12-27T02:00:33.429Z,27.90
2018-12-27T02:01:33.415Z,27.90
2018-12-27T02:02:33.412Z,28.80
2018-12-27T02:03:33.394Z,29.60
2018-12-27T02:04:33.383Z,29.20
2018-12-27T02:05:33.372Z,29.20
2018-12-27T02:06:33.362Z,28.10
2018-12-27T02:07:33.359Z,27.30
2018-12-27T02:08:33.339Z,29.00
2018-12-27T02:09:33.332Z,28.20
2018-12-27T02:10:33.318Z,28.80
2018-12-27T02:11:33.309Z,28.50
2018-12-27T02:12:33.326Z,28.90
2018-12-27T02:13:33.284Z,28.70
2018-12-27T02:14:33.275Z,28.30
2018-12-27T02:15:33.266Z,28.50
2018-12-27T02:16:33.252Z,28.00
2018-12-27T02:17:33.244Z,28.40
2018-12-27T02:18:33.238Z,29.30
2018-12-27T02:19:33.220Z,27.50
2018-12-27T02:20:33.209Z,27.40
2018-12-27T02:21:33.202Z,27.40
2018-12-27T02:22:33.192Z,27.30
2018-12-27T02:23:33.185Z,27.10
2018-12-27T02:24:33.166Z,26.60
2018-12-27T02:25:33.154Z,26.80
2018-12-27T02:26:33.142Z,26.50
2018-12-27T02:27:33.140Z,26.00
2018-12-27T02:28:33.129Z,27.50
2018-12-27T02:29:33.110Z,26.70
2018-12-27T02:30:33.106Z,25.00
2018-12-27T02:31:33.091Z,26.60
2018-12-27T02:32:33.079Z,26.60
2018-12-27T02:33:35.589Z,24.60
2018-12-27T02:34:33.058Z,24.90
2018-12-27T02:35:33.058Z,25.70
2018-12-27T02:36:33.036Z,25.20
2018-12-27T02:37:33.025Z,25.70
2018-12-27T02:38:33.025Z,24.50
2018-12-27T02:39:33.008Z,24.20
2018-12-27T02:40:32.993Z,24.80
2018-12-27T02:41:32.982Z,23.80
2018-12-27T02:42:32.969Z,23.90
2018-12-27T02:43:32.972Z,23.80
2018-12-27T02:44:32.951Z,23.50
2018-12-27T02:45:32.937Z,22.90
2018-12-27T02:46:32.931Z,23.00
2018-12-27T02:47:32.917Z,23.80
2018-12-27T02:48:32.916Z,22.60
2018-12-27T02:49:32.912Z,22.10
2018-12-27T02:50:32.893Z,21.80
2018-12-27T02:51:32.875Z,21.30
2018-12-27T02:52:32.862Z,21.90
2018-12-27T02:53:32.852Z,20.40
2018-12-27T02:54:32.853Z,20.60
2018-12-27T02:55:32.844Z,21.20
2018-12-27T02:56:32.826Z,21.80
2018-12-27T02:57:32.809Z,20.60
2018-12-27T02:58:32.804Z,19.60
2018-12-27T02:59:32.797Z,19.30
2018-12-27T03:00:32.784Z,19.60
2018-12-27T03:01:32.767Z,20.00
2018-12-27T03:02:32.755Z,19.10
2018-12-27T03:03:32.746Z,19.30
2018-12-27T03:04:32.743Z,18.30
2018-12-27T03:05:32.723Z,19.70
2018-12-27T03:06:32.712Z,18.50
2018-12-27T03:07:32.701Z,19.30
2018-12-27T03:08:32.693Z,20.20
2018-12-27T03:09:32.694Z,19.50
2018-12-27T03:10:32.669Z,18.80
2018-12-27T03:11:32.662Z,18.60
2018-12-27T03:12:32.650Z,19.60
2018-12-27T03:13:32.644Z,18.70
2018-12-27T03:14:32.637Z,17.10
2018-12-27T03:15:32.617Z,18.10
2018-12-27T03:16:32.605Z,17.10
2018-12-27T03:17:32.596Z,17.30
2018-12-27T03:18:32.584Z,17.90
2018-12-27T03:19:32.587Z,17.50
2018-12-27T03:20:32.563Z,16.80
2018-12-27T03:21:32.553Z,17.30
2018-12-27T03:22:32.541Z,16.00
2018-12-27T03:23:32.531Z,16.50
2018-12-27T03:24:32.528Z,16.40
2018-12-27T03:25:32.508Z,16.60
2018-12-27T03:26:32.507Z,17.20
2018-12-27T03:27:32.487Z,15.80
2018-12-27T03:28:32.477Z,17.20
2018-12-27T03:29:32.481Z,16.30
2018-12-27T03:30:32.456Z,16.20
2018-12-27T03:31:32.448Z,17.00
2018-12-27T03:32:32.435Z,16.70
2018-12-27T03:33:32.423Z,17.60
2018-12-27T03:34:32.442Z,16.30
2018-12-27T03:35:32.403Z,16.10
2018-12-27T03:36:32.391Z,16.80
2018-12-27T03:37:32.382Z,17.00
2018-12-27T03:38:32.371Z,15.90
2018-12-27T03:39:32.360Z,16.90
2018-12-27T03:40:32.357Z,16.30
2018-12-27T03:41:32.339Z,17.40
2018-12-27T03:42:32.329Z,16.40
2018-12-27T03:43:32.317Z,17.20
2018-12-27T03:44:32.307Z,17.00
2018-12-27T03:45:32.308Z,16.70
2018-12-27T03:46:32.284Z,17.50
2018-12-27T03:47:32.275Z,16.40
2018-12-27T03:48:32.265Z,16.30
2018-12-27T03:49:32.253Z,16.20
2018-12-27T03:50:32.250Z,16.20
2018-12-27T03:51:32.232Z,16.10
2018-12-27T03:52:32.220Z,15.70
2018-12-27T03:53:32.210Z,16.10
2018-12-27T03:54:32.202Z,15.80
2018-12-27T03:55:32.197Z,15.70
2018-12-27T03:56:32.181Z,15.10
2018-12-27T03:57:32.167Z,15.00
2018-12-27T03:58:32.157Z,15.30
2018-12-27T03:59:32.147Z,16.00
2018-12-27T04:00:32.144Z,16.30
2018-12-27T04:01:32.124Z,15.80
2018-12-27T04:02:32.116Z,16.50
2018-12-27T04:03:32.103Z,16.90
2018-12-27T04:04:32.094Z,15.30
2018-12-27T04:05:32.090Z,15.70
2018-12-27T04:06:32.071Z,16.30
2018-12-27T04:07:32.064Z,16.40
2018-12-27T04:08:32.051Z,14.70
2018-12-27T04:09:32.040Z,15.70
2018-12-27T04:10:32.058Z,15.70
2018-12-27T04:11:32.017Z,15.70
2018-12-27T04:12:32.009Z,15.00
2018-12-27T04:13:31.996Z,14.50
2018-12-27T04:14:31.987Z,15.90
2018-12-27T04:15:31.974Z,15.40
2018-12-27T04:16:31.978Z,14.40
2018-12-27T04:17:31.955Z,15.60
2018-12-27T04:18:31.944Z,14.40
2018-12-27T04:19:31.933Z,14.90
2018-12-27T04:20:31.924Z,15.80
2018-12-27T04:21:31.921Z,15.40
2018-12-27T04:22:31.900Z,17.00
2018-12-27T04:23:31.890Z,16.10
2018-12-27T04:24:31.884Z,16.70
2018-12-27T04:25:31.869Z,16.30
2018-12-27T04:26:31.869Z,16.50
2018-12-27T04:27:31.848Z,17.60
2018-12-27T04:28:31.836Z,17.20
2018-12-27T04:29:31.827Z,17.80
2018-12-27T04:30:31.814Z,17.90
2018-12-27T04:31:31.829Z,17.80
2018-12-27T04:32:31.796Z,17.50
2018-12-27T04:33:31.782Z,17.90
2018-12-27T04:34:31.772Z,17.90
2018-12-27T04:35:31.766Z,18.80
2018-12-27T04:36:31.759Z,17.60
2018-12-27T04:37:31.746Z,16.70
2018-12-27T04:38:31.729Z,15.90
2018-12-27T04:39:31.719Z,16.40
2018-12-27T04:40:31.711Z,17.10
2018-12-27T04:41:31.705Z,16.80
2018-12-27T04:42:31.686Z,18.00
2018-12-27T04:43:31.675Z,18.40
2018-12-27T04:44:31.664Z,17.20
2018-12-27T04:45:31.662Z,17.10
2018-12-27T04:46:31.679Z,17.00
2018-12-27T04:47:31.634Z,16.90
2018-12-27T04:48:31.622Z,16.40
2018-12-27T04:49:31.610Z,16.40
2018-12-27T04:50:31.602Z,16.20
2018-12-27T04:51:31.591Z,16.30
2018-12-27T04:52:31.598Z,16.40
2018-12-27T04:53:31.569Z,17.00
2018-12-27T04:54:31.561Z,15.70
2018-12-27T04:55:31.547Z,16.20
2018-12-27T04:56:31.535Z,16.00
2018-12-27T04:57:31.537Z,16.80
2018-12-27T04:58:31.516Z,16.90
2018-12-27T04:59:31.505Z,16.70
2018-12-27T05:00:31.498Z,16.70
2018-12-27T05:01:31.482Z,16.80
2018-12-27T05:02:31.479Z,16.50
2018-12-27T05:03:31.460Z,16.50
2018-12-27T05:04:31.452Z,16.50
2018-12-27T05:05:31.445Z,16.80
2018-12-27T05:06:31.429Z,16.80
2018-12-27T05:07:31.426Z,17.10
2018-12-27T05:08:31.409Z,17.10
2018-12-27T05:09:31.399Z,16.70
2018-12-27T05:10:31.392Z,17.30
2018-12-27T05:11:31.376Z,17.80
2018-12-27T05:12:31.372Z,17.60
2018-12-27T05:13:31.354Z,18.90
2018-12-27T05:14:31.345Z,17.50
2018-12-27T05:15:31.341Z,18.20
2018-12-27T05:16:31.323Z,18.00
2018-12-27T05:17:31.321Z,18.50
2018-12-27T05:18:31.303Z,18.80
2018-12-27T05:19:31.289Z,18.80
2018-12-27T05:20:31.280Z,18.60
2018-12-27T05:21:31.269Z,18.40
2018-12-27T05:22:31.277Z,19.50
2018-12-27T05:23:31.250Z,20.30
2018-12-27T05:24:31.236Z,20.30
2018-12-27T05:25:31.226Z,20.30
2018-12-27T05:26:31.214Z,21.60
2018-12-27T05:27:31.239Z,21.80
2018-12-27T05:28:31.196Z,22.90
2018-12-27T05:29:31.184Z,22.50
2018-12-27T05:30:31.172Z,23.00
2018-12-27T05:31:31.160Z,23.20
2018-12-27T05:32:31.150Z,23.00
2018-12-27T05:33:31.150Z,23.80
2018-12-27T05:34:31.128Z,23.50
2018-12-27T05:35:31.118Z,23.40
2018-12-27T05:36:31.111Z,22.90
2018-12-27T05:37:31.096Z,21.80
2018-12-27T05:38:31.094Z,22.60
2018-12-27T05:39:31.079Z,22.20
2018-12-27T05:40:31.064Z,20.50
2018-12-27T05:41:31.054Z,20.90
2018-12-27T05:42:31.043Z,20.40
2018-12-27T05:43:31.041Z,21.70
2018-12-27T05:44:31.024Z,20.20
2018-12-27T05:45:31.015Z,19.90
2018-12-27T05:46:31.000Z,19.60
2018-12-27T05:47:30.989Z,19.10
2018-12-27T05:48:30.986Z,19.30
2018-12-27T05:49:30.970Z,17.80
2018-12-27T05:50:30.961Z,18.20
2018-12-27T05:51:30.947Z,18.60
2018-12-27T05:52:30.937Z,17.80
2018-12-27T05:53:30.934Z,18.80
2018-12-27T05:54:30.916Z,18.30
2018-12-27T05:55:34.445Z,19.20
2018-12-27T05:56:30.894Z,18.00
2018-12-27T05:57:30.882Z,17.90
2018-12-27T05:58:30.901Z,18.20
2018-12-27T05:59:30.864Z,18.10
2018-12-27T06:00:30.851Z,18.10
2018-12-27T06:01:30.841Z,19.50
2018-12-27T06:02:30.830Z,18.30
2018-12-27T06:03:30.819Z,19.20
2018-12-27T06:04:33.981Z,19.20
2018-12-27T06:05:30.797Z,18.70
2018-12-27T06:06:30.789Z,18.40
2018-12-27T06:07:30.778Z,18.70
2018-12-27T06:08:30.768Z,18.80
2018-12-27T06:09:30.764Z,18.80
2018-12-27T06:10:30.743Z,18.70
2018-12-27T06:11:30.732Z,18.70
2018-12-27T06:12:30.725Z,19.90
2018-12-27T06:13:30.711Z,17.90
2018-12-27T06:14:30.710Z,19.20
2018-12-27T06:15:30.692Z,18.50
2018-12-27T06:16:30.683Z,19.30
2018-12-27T06:17:30.670Z,20.00
2018-12-27T06:18:30.658Z,18.70
2018-12-27T06:19:30.656Z,18.90
2018-12-27T06:20:30.640Z,19.10
2018-12-27T06:21:30.626Z,20.60
2018-12-27T06:22:30.616Z,19.30
2018-12-27T06:23:30.605Z,19.50
2018-12-27T06:24:30.605Z,19.10
2018-12-27T06:25:30.589Z,19.10
2018-12-27T06:26:30.574Z,19.80
2018-12-27T06:27:30.563Z,20.50
2018-12-27T06:28:30.553Z,19.30
2018-12-27T06:29:30.549Z,19.90
2018-12-27T06:30:30.535Z,19.60
2018-12-27T06:31:30.520Z,17.00
2018-12-27T06:32:30.510Z,18.40
2018-12-27T06:33:30.498Z,16.90
2018-12-27T06:34:30.496Z,17.10
2018-12-27T06:35:30.479Z,17.10
2018-12-27T06:36:30.466Z,17.60
2018-12-27T06:37:30.456Z,17.70
2018-12-27T06:38:30.446Z,17.40
2018-12-27T06:39:30.448Z,19.20
2018-12-27T06:40:30.424Z,17.40
2018-12-27T06:41:30.416Z,17.60
2018-12-27T06:42:30.402Z,18.00
2018-12-27T06:43:30.392Z,18.60
2018-12-27T06:44:30.674Z,18.80
2018-12-27T06:45:30.370Z,17.90
2018-12-27T06:46:30.360Z,17.90
2018-12-27T06:47:30.349Z,18.20
2018-12-27T06:48:30.338Z,17.80
2018-12-27T06:49:30.328Z,17.90
2018-12-27T06:50:30.324Z,18.90
2018-12-27T06:51:30.306Z,18.10
2018-12-27T06:52:30.295Z,20.00
2018-12-27T06:53:30.285Z,18.70
2018-12-27T06:54:30.276Z,18.90
2018-12-27T06:55:30.271Z,20.40
2018-12-27T06:56:30.254Z,18.90
2018-12-27T06:57:30.242Z,20.20
2018-12-27T06:58:37.577Z,18.90
2018-12-27T06:59:31.219Z,18.40
2018-12-27T07:00:30.218Z,18.20
2018-12-27T07:01:30.200Z,19.50
2018-12-27T07:02:30.189Z,19.10
2018-12-27T07:03:30.181Z,18.70
2018-12-27T07:04:30.168Z,18.50
2018-12-27T07:05:30.166Z,19.50
2018-12-27T07:06:30.146Z,19.50
2018-12-27T07:07:30.134Z,19.70
2018-12-27T07:08:30.124Z,19.70
2018-12-27T07:09:30.117Z,19.70
2018-12-27T07:10:30.111Z,19.00
2018-12-27T07:11:30.093Z,18.30
2018-12-27T07:12:30.084Z,18.70
2018-12-27T07:13:30.071Z,20.00
2018-12-27T07:14:30.061Z,18.30
2018-12-27T07:15:30.058Z,18.60
2018-12-27T07:16:30.039Z,19.60
2018-12-27T07:17:30.029Z,19.20
2018-12-27T07:18:30.018Z,18.40
2018-12-27T07:19:30.008Z,18.90
2018-12-27T07:20:30.006Z,19.80
2018-12-27T07:21:29.986Z,19.50
2018-12-27T07:22:29.975Z,20.40
2018-12-27T07:23:29.964Z,19.50
2018-12-27T07:24:29.955Z,18.40
2018-12-27T07:25:29.952Z,19.30
2018-12-27T07:26:29.934Z,18.80
2018-12-27T07:27:29.920Z,19.60
2018-12-27T07:28:29.911Z,19.10
2018-12-27T07:29:29.900Z,19.10
2018-12-27T07:30:29.915Z,21.10
2018-12-27T07:31:29.878Z,19.80
2018-12-27T07:32:29.866Z,19.40
2018-12-27T07:33:29.858Z,18.50
2018-12-27T07:34:29.846Z,19.40
2018-12-27T07:35:29.834Z,18.80
2018-12-27T07:36:29.834Z,19.80
2018-12-27T07:37:29.812Z,19.60
2018-12-27T07:38:29.802Z,20.30
2018-12-27T07:39:29.791Z,20.30
2018-12-27T07:40:29.780Z,21.00
2018-12-27T07:41:29.781Z,20.60
2018-12-27T07:42:29.760Z,19.60
2018-12-27T07:43:29.748Z,18.90
2018-12-27T07:44:29.741Z,20.80
2018-12-27T07:45:29.726Z,19.40
2018-12-27T07:46:29.725Z,19.20
2018-12-27T07:47:29.704Z,19.20
2018-12-27T07:48:29.694Z,18.80
2018-12-27T07:49:29.682Z,19.60
2018-12-27T07:50:29.672Z,19.10
2018-12-27T07:51:29.669Z,18.50
2018-12-27T07:52:29.650Z,19.00
2018-12-27T07:53:29.642Z,19.40
2018-12-27T07:54:29.628Z,19.40
2018-12-27T07:55:29.618Z,19.00
2018-12-27T07:56:29.617Z,19.10
2018-12-27T07:57:29.598Z,17.70
2018-12-27T07:58:29.587Z,18.20
2018-12-27T07:59:29.584Z,18.90
2018-12-27T08:00:29.564Z,19.10
2018-12-27T08:01:29.563Z,19.20
2018-12-27T08:02:29.542Z,19.20
2018-12-27T08:03:29.534Z,19.30
2018-12-27T08:04:29.521Z,19.00
2018-12-27T08:05:29.510Z,18.50
2018-12-27T08:06:29.510Z,18.50
2018-12-27T08:07:29.488Z,19.20
2018-12-27T08:08:29.498Z,18.10
2018-12-27T08:09:29.467Z,19.10
2018-12-27T08:10:29.456Z,19.30
2018-12-27T08:11:29.462Z,18.90
2018-12-27T08:12:29.435Z,19.20
2018-12-27T08:13:29.428Z,19.20
2018-12-27T08:14:29.414Z,18.70
2018-12-27T08:15:29.403Z,19.30
2018-12-27T08:16:29.432Z,18.90
2018-12-27T08:17:29.383Z,19.10
2018-12-27T08:18:29.372Z,19.40
2018-12-27T08:19:29.360Z,19.20
2018-12-27T08:20:29.352Z,19.60
2018-12-27T08:21:29.337Z,19.10
2018-12-27T08:22:29.336Z,20.10
2018-12-27T08:23:29.319Z,18.80
2018-12-27T08:24:29.306Z,19.70
2018-12-27T08:25:29.295Z,19.20
2018-12-27T08:26:29.284Z,19.40
2018-12-27T08:27:29.281Z,20.70
2018-12-27T08:28:29.265Z,20.20
2018-12-27T08:29:29.255Z,20.70
2018-12-27T08:30:29.242Z,21.10
2018-12-27T08:31:29.233Z,21.40
2018-12-27T08:32:29.233Z,21.50
2018-12-27T08:33:29.208Z,21.50
2018-12-27T08:34:29.197Z,21.00
2018-12-27T08:35:29.187Z,21.20
2018-12-27T08:36:29.241Z,21.80
2018-12-27T08:37:29.181Z,21.40
2018-12-27T08:38:29.165Z,22.20
2018-12-27T08:39:29.145Z,22.50
2018-12-27T08:40:29.134Z,21.60
2018-12-27T08:41:29.122Z,21.90
2018-12-27T08:42:29.121Z,22.40
2018-12-27T08:43:29.101Z,22.90
2018-12-27T08:44:29.091Z,22.40
2018-12-27T08:45:29.079Z,21.60
2018-12-27T08:46:29.068Z,22.40
2018-12-27T08:47:29.066Z,22.40
2018-12-27T08:48:29.050Z,21.80
2018-12-27T08:49:29.036Z,21.70
2018-12-27T08:50:29.025Z,22.60
2018-12-27T08:51:29.016Z,23.20
2018-12-27T08:52:29.011Z,22.40
2018-12-27T08:53:28.993Z,21.90
2018-12-27T08:54:28.983Z,22.10
2018-12-27T08:55:28.971Z,21.90
2018-12-27T08:56:28.963Z,23.30
2018-12-27T08:57:28.980Z,22.10
2018-12-27T08:58:28.939Z,22.50
2018-12-27T08:59:28.930Z,22.80
2018-12-27T09:00:28.920Z,22.40
2018-12-27T09:01:28.918Z,22.80
2018-12-27T09:02:28.908Z,22.50
2018-12-27T09:03:28.907Z,22.80
2018-12-27T09:04:28.874Z,22.00
2018-12-27T09:05:28.865Z,22.60
2018-12-27T09:06:28.852Z,22.50
2018-12-27T09:07:28.842Z,23.10
2018-12-27T09:08:28.839Z,22.70
2018-12-27T09:09:28.821Z,22.40
2018-12-27T09:10:28.809Z,23.20
2018-12-27T09:11:28.801Z,22.50
2018-12-27T09:12:28.788Z,23.10
2018-12-27T09:13:28.785Z,22.30
2018-12-27T09:14:28.766Z,22.80
2018-12-27T09:15:28.754Z,24.10
2018-12-27T09:16:28.766Z,23.90
2018-12-27T09:17:28.739Z,22.70
2018-12-27T09:18:28.754Z,22.20
2018-12-27T09:19:28.711Z,22.50
2018-12-27T09:20:28.702Z,22.30
2018-12-27T09:21:28.689Z,21.90
2018-12-27T09:22:28.684Z,23.40
2018-12-27T09:23:28.677Z,22.40
2018-12-27T09:24:28.657Z,23.20
2018-12-27T09:25:28.654Z,22.80
2018-12-27T09:26:28.643Z,22.00
2018-12-27T09:27:28.627Z,21.70
2018-12-27T09:28:28.622Z,22.80
2018-12-27T09:29:28.608Z,22.00
2018-12-27T09:30:28.606Z,23.20
2018-12-27T09:31:28.580Z,22.60
2018-12-27T09:32:28.571Z,23.30
2018-12-27T09:33:28.569Z,23.20
2018-12-27T09:34:28.549Z,22.90
2018-12-27T09:35:28.537Z,23.30
2018-12-27T09:36:28.528Z,21.90
2018-12-27T09:37:28.516Z,23.30
2018-12-27T09:38:28.530Z,23.00
2018-12-27T09:39:28.495Z,23.40
2018-12-27T09:40:28.484Z,23.90
2018-12-27T09:41:28.474Z,23.50
2018-12-27T09:42:28.462Z,23.10
2018-12-27T09:43:28.478Z,23.50
2018-12-27T09:44:28.440Z,23.20
2018-12-27T09:45:28.434Z,23.80
2018-12-27T09:46:28.448Z,23.20
2018-12-27T09:47:28.407Z,23.40
2018-12-27T09:48:28.396Z,23.70
2018-12-27T09:49:28.396Z,24.50
2018-12-27T09:50:28.378Z,23.70
2018-12-27T09:51:28.364Z,23.70
2018-12-27T09:52:28.353Z,23.80
2018-12-27T09:53:28.343Z,23.40
2018-12-27T09:54:28.341Z,24.00
2018-12-27T09:55:28.322Z,23.60
2018-12-27T09:56:28.314Z,24.60
2018-12-27T09:57:28.300Z,24.40
2018-12-27T09:58:28.289Z,24.30
2018-12-27T09:59:28.292Z,24.80
2018-12-27T10:00:28.266Z,24.40
2018-12-27T10:01:28.256Z,24.80
2018-12-27T10:02:28.245Z,25.50
2018-12-27T10:03:28.234Z,24.80
2018-12-27T10:04:28.232Z,25.40
2018-12-27T10:05:33.776Z,24.20
2018-12-27T10:06:29.202Z,24.60
2018-12-27T10:07:28.192Z,25.00
2018-12-27T10:08:28.181Z,25.40
2018-12-27T10:09:28.219Z,25.50
2018-12-27T10:10:28.159Z,24.20
2018-12-27T10:11:28.152Z,24.80
2018-12-27T10:12:28.137Z,24.70
2018-12-27T10:13:28.130Z,25.30
2018-12-27T10:14:28.117Z,26.30
2018-12-27T10:15:28.135Z,24.90
2018-12-27T10:16:28.094Z,25.70
2018-12-27T10:17:28.084Z,25.30
2018-12-27T10:18:28.078Z,27.00
2018-12-27T10:19:28.068Z,26.30
2018-12-27T10:20:28.060Z,26.40
2018-12-27T10:21:28.040Z,26.50
2018-12-27T10:22:28.030Z,25.90
2018-12-27T10:23:28.022Z,25.40
2018-12-27T10:24:28.016Z,25.50
2018-12-27T10:25:28.008Z,26.90
2018-12-27T10:26:27.987Z,25.90
2018-12-27T10:27:27.975Z,25.70
2018-12-27T10:28:27.968Z,25.40
2018-12-27T10:29:28.115Z,24.70
2018-12-27T10:30:27.955Z,25.10
2018-12-27T10:31:27.933Z,25.70
2018-12-27T10:32:27.924Z,25.40
2018-12-27T10:33:27.913Z,25.10
2018-12-27T10:34:27.904Z,24.90
2018-12-27T10:35:27.904Z,24.60
2018-12-27T10:36:27.880Z,25.20
2018-12-27T10:37:27.874Z,24.50
2018-12-27T10:38:27.890Z,24.50
2018-12-27T10:39:27.847Z,24.80
2018-12-27T10:40:27.848Z,23.80
2018-12-27T10:41:27.827Z,23.80
2018-12-27T10:42:27.817Z,24.60
2018-12-27T10:43:27.819Z,24.40
2018-12-27T10:44:27.797Z,25.00
2018-12-27T10:45:27.810Z,24.00
2018-12-27T10:46:27.776Z,24.30
2018-12-27T10:47:27.763Z,24.60
2018-12-27T10:48:27.751Z,23.80
2018-12-27T10:49:27.741Z,23.70
2018-12-27T10:50:27.732Z,23.00
2018-12-27T10:51:27.726Z,23.80
2018-12-27T10:52:27.710Z,23.30
2018-12-27T10:53:27.703Z,23.20
2018-12-27T10:54:27.687Z,24.00
2018-12-27T10:55:27.673Z,24.10
2018-12-27T10:56:27.671Z,24.10
2018-12-27T10:57:27.660Z,24.00
2018-12-27T10:58:27.641Z,23.20
2018-12-27T10:59:27.630Z,23.70
2018-12-27T11:00:27.620Z,23.70
2018-12-27T11:01:27.618Z,23.40
2018-12-27T11:02:27.600Z,23.60
2018-12-27T11:03:30.732Z,23.80
2018-12-27T11:04:27.579Z,24.30
2018-12-27T11:05:27.566Z,23.00
2018-12-27T11:06:27.564Z,23.30
2018-12-27T11:07:27.545Z,23.50
2018-12-27T11:08:27.535Z,22.30
2018-12-27T11:09:27.524Z,22.40
2018-12-27T11:10:27.514Z,23.20
2018-12-27T11:11:27.514Z,22.80
2018-12-27T11:12:27.492Z,22.40
2018-12-27T11:13:27.483Z,23.10
2018-12-27T11:14:27.471Z,22.30
2018-12-27T11:15:27.460Z,22.50
2018-12-27T11:16:27.457Z,21.90
2018-12-27T11:17:27.439Z,21.80
2018-12-27T11:18:28.464Z,22.40
2018-12-27T11:19:27.418Z,21.70
2018-12-27T11:20:27.406Z,21.10
2018-12-27T11:21:27.423Z,21.30
2018-12-27T11:22:27.389Z,21.90
2018-12-27T11:23:27.375Z,20.60
2018-12-27T11:24:27.364Z,21.60
2018-12-27T11:25:27.357Z,21.10
2018-12-27T11:26:27.343Z,20.90
2018-12-27T11:27:27.339Z,22.40
2018-12-27T11:28:27.321Z,22.00
2018-12-27T11:29:27.311Z,22.20
2018-12-27T11:30:27.299Z,21.40
2018-12-27T11:31:27.288Z,22.10
2018-12-27T11:32:27.286Z,22.10
2018-12-27T11:33:27.268Z,21.70
2018-12-27T11:34:27.255Z,21.30
2018-12-27T11:35:27.246Z,22.20
2018-12-27T11:36:27.234Z,22.20
2018-12-27T11:37:27.233Z,21.00
2018-12-27T11:38:27.216Z,21.30
2018-12-27T11:39:27.202Z,21.30
2018-12-27T11:40:27.193Z,20.90
2018-12-27T11:41:27.183Z,20.70
2018-12-27T11:42:27.179Z,20.90
2018-12-27T11:43:27.168Z,21.20
2018-12-27T11:44:27.149Z,21.50
2018-12-27T11:45:27.139Z,20.90
2018-12-27T11:46:27.127Z,21.20
2018-12-27T11:47:27.127Z,20.40
2018-12-27T11:48:27.106Z,20.20
2018-12-27T11:49:27.095Z,20.50
2018-12-27T11:50:27.087Z,21.30
2018-12-27T11:51:27.077Z,20.70
2018-12-27T11:52:27.099Z,20.30
2018-12-27T11:53:27.052Z,20.80
2018-12-27T11:54:27.043Z,20.80
2018-12-27T11:55:27.031Z,21.50
2018-12-27T11:56:27.023Z,21.00
2018-12-27T11:57:27.009Z,20.40
2018-12-27T11:58:27.006Z,20.40
2018-12-27T11:59:26.988Z,22.00
2018-12-27T12:00:26.977Z,21.50
2018-12-27T12:01:26.971Z,21.50
2018-12-27T12:02:31.029Z,20.50
2018-12-27T12:03:26.954Z,21.80
2018-12-27T12:04:26.935Z,20.80
2018-12-27T12:05:26.923Z,20.70
2018-12-27T12:06:26.912Z,21.50
2018-12-27T12:07:26.902Z,22.20
2018-12-27T12:08:26.901Z,21.90
2018-12-27T12:09:26.881Z,21.00
2018-12-27T12:10:26.869Z,21.90
2018-12-27T12:11:26.860Z,20.80
2018-12-27T12:12:26.848Z,20.50
2018-12-27T12:13:26.847Z,22.30
2018-12-27T12:14:26.827Z,21.50
2018-12-27T12:15:26.819Z,21.50
2018-12-27T12:16:26.856Z,21.80
2018-12-27T12:17:26.794Z,21.60
2018-12-27T12:18:26.792Z,21.50
2018-12-27T12:19:26.775Z,21.90
2018-12-27T12:20:26.765Z,21.50
2018-12-27T12:21:26.752Z,21.70
2018-12-27T12:22:26.741Z,22.00
2018-12-27T12:23:26.739Z,21.60
2018-12-27T12:24:26.720Z,21.10
2018-12-27T12:25:26.710Z,21.50
2018-12-27T12:26:26.708Z,21.60
2018-12-27T12:27:26.687Z,20.60
2018-12-27T12:28:26.685Z,20.80
2018-12-27T12:29:26.669Z,20.80
2018-12-27T12:30:26.657Z,22.00
2018-12-27T12:31:26.648Z,22.10
2018-12-27T12:32:26.633Z,23.90
2018-12-27T12:33:26.632Z,25.00
2018-12-27T12:34:26.613Z,25.90
2018-12-27T12:35:26.604Z,25.20
2018-12-27T12:36:26.590Z,27.90
2018-12-27T12:37:26.579Z,27.60
2018-12-27T12:38:26.570Z,25.40
2018-12-27T12:39:26.566Z,25.80
2018-12-27T12:40:26.549Z,26.30
2018-12-27T12:41:26.536Z,24.60
2018-12-27T12:42:33.010Z,23.30
2018-12-27T12:43:27.515Z,23.50
2018-12-27T12:44:26.514Z,25.30
2018-12-27T12:45:26.493Z,24.30
2018-12-27T12:46:26.481Z,23.90
2018-12-27T12:47:26.481Z,23.20
2018-12-27T12:48:26.461Z,21.10
2018-12-27T12:49:26.458Z,22.60
2018-12-27T12:50:26.439Z,21.60
2018-12-27T12:51:26.428Z,20.10
2018-12-27T12:52:26.418Z,20.10